createdAt,value
2018-10-06T00:00:49.630Z,100859.63
2018-10-06T00:01:55.174Z,100856.29
2018-10-06T00:03:00.683Z,100853.00
2018-10-06T00:04:06.213Z,100856.88
2018-10-06T00:05:11.738Z,100855.77
2018-10-06T00:06:17.338Z,100854.14
2018-10-06T00:07:22.870Z,100857.22
2018-10-06T00:08:28.367Z,100854.24
2018-10-06T00:09:33.782Z,100858.05
2018-10-06T00:10:39.305Z,100845.65
2018-10-06T00:11:44.785Z,100843.91
2018-10-06T00:12:50.253Z,100848.62
2018-10-06T00:13:55.649Z,100846.55
2018-10-06T00:15:01.114Z,100848.31
2018-10-06T00:16:06.610Z,100849.00
2018-10-06T00:17:12.109Z,100841.82
2018-10-06T00:18:17.574Z,100841.09
2018-10-06T00:19:23.082Z,100839.80
2018-10-06T00:20:28.525Z,100843.20
2018-10-06T00:21:34.024Z,100842.72
2018-10-06T00:22:39.413Z,100838.91
2018-10-06T00:23:44.901Z,100842.38
2018-10-06T00:24:50.440Z,100843.34
2018-10-06T00:25:56.001Z,100837.83
2018-10-06T00:27:01.533Z,100836.58
2018-10-06T00:28:07.576Z,100834.46
2018-10-06T00:29:13.085Z,100840.91
2018-10-06T00:30:18.589Z,100833.59
2018-10-06T00:31:24.050Z,100836.67
2018-10-06T00:32:29.533Z,100839.40
2018-10-06T00:33:34.688Z,100838.41
2018-10-06T00:34:39.748Z,100835.59
2018-10-06T00:35:44.847Z,100839.08
2018-10-06T00:36:50.033Z,100841.61
2018-10-06T00:37:55.124Z,100837.06
2018-10-06T00:39:00.176Z,100834.88
2018-10-06T00:40:05.217Z,100838.76
2018-10-06T00:41:10.450Z,100834.02
2018-10-06T00:42:15.592Z,100831.26
2018-10-06T00:43:20.616Z,100827.51
2018-10-06T00:44:25.848Z,100826.41
2018-10-06T00:45:30.912Z,100829.01
2018-10-06T00:46:36.003Z,100830.80
2018-10-06T00:47:41.345Z,100834.16
2018-10-06T00:48:46.867Z,100825.55
2018-10-06T00:49:52.345Z,100827.28
2018-10-06T00:50:57.813Z,100824.27
2018-10-06T00:52:03.438Z,100820.84
2018-10-06T00:53:09.081Z,100822.57
2018-10-06T00:54:14.636Z,100823.85
2018-10-06T00:55:20.129Z,100816.16
2018-10-06T00:56:25.810Z,100818.22
2018-10-06T00:57:31.237Z,100817.77
2018-10-06T00:58:36.736Z,100818.98
2018-10-06T00:59:42.214Z,100816.42
2018-10-06T01:00:47.676Z,100814.66
2018-10-06T01:01:53.408Z,100815.50
2018-10-06T01:02:58.895Z,100812.94
2018-10-06T01:04:04.389Z,100809.09
2018-10-06T01:05:09.916Z,100809.51
2018-10-06T01:06:15.392Z,100805.28
2018-10-06T01:07:20.916Z,100800.13
2018-10-06T01:08:26.418Z,100800.16
2018-10-06T01:09:31.889Z,100800.18
2018-10-06T01:10:37.356Z,100803.16
2018-10-06T01:11:42.850Z,100807.20
2018-10-06T01:12:48.325Z,100797.81
2018-10-06T01:13:53.881Z,100799.51
2018-10-06T01:14:59.337Z,100795.28
2018-10-06T01:16:04.805Z,100803.38
2018-10-06T01:17:10.329Z,100802.55
2018-10-06T01:18:15.732Z,100796.95
2018-10-06T01:19:21.169Z,100796.95
2018-10-06T01:20:26.797Z,100800.34
2018-10-06T01:21:32.288Z,100798.20
2018-10-06T01:22:37.803Z,100799.06
2018-10-06T01:23:43.238Z,100796.91
2018-10-06T01:24:48.674Z,100798.23
2018-10-06T01:25:54.113Z,100791.83
2018-10-06T01:26:59.616Z,100793.52
2018-10-06T01:28:05.049Z,100790.13
2018-10-06T01:29:10.485Z,100791.44
2018-10-06T01:30:15.938Z,100791.88
2018-10-06T01:31:21.843Z,100789.80
2018-10-06T01:32:27.376Z,100783.97
2018-10-06T01:33:32.932Z,100784.00
2018-10-06T01:34:38.460Z,100784.48
2018-10-06T01:35:44.033Z,100777.72
2018-10-06T01:36:49.575Z,100775.13
2018-10-06T01:37:55.077Z,100779.36
2018-10-06T01:39:00.521Z,100772.60
2018-10-06T01:40:06.118Z,100777.27
2018-10-06T01:41:11.771Z,100775.55
2018-10-06T01:42:17.213Z,100774.27
2018-10-06T01:43:22.828Z,100770.04
2018-10-06T01:44:28.283Z,100773.85
2018-10-06T01:45:33.762Z,100769.56
2018-10-06T01:46:39.302Z,100769.91
2018-10-06T01:47:44.774Z,100770.75
2018-10-06T01:48:50.228Z,100769.47
2018-10-06T01:49:55.911Z,100766.94
2018-10-06T01:51:01.340Z,100760.91
2018-10-06T01:52:06.852Z,100771.12
2018-10-06T01:53:12.376Z,100762.70
2018-10-06T01:54:17.843Z,100761.45
2018-10-06T01:55:23.427Z,100757.20
2018-10-06T01:56:28.861Z,100762.23
2018-10-06T01:57:34.269Z,100756.72
2018-10-06T01:58:39.781Z,100761.39
2018-10-06T01:59:45.391Z,100760.14
2018-10-06T02:00:50.934Z,100762.29
2018-10-06T02:01:56.373Z,100757.23
2018-10-06T02:03:01.793Z,100758.06
2018-10-06T02:04:07.270Z,100757.68
2018-10-06T02:05:12.869Z,100755.18
2018-10-06T02:06:18.473Z,100756.75
2018-10-06T02:07:23.874Z,100754.70
2018-10-06T02:08:29.448Z,100762.80
2018-10-06T02:09:34.890Z,100752.59
2018-10-06T02:10:40.356Z,100751.31
2018-10-06T02:11:45.786Z,100747.47
2018-10-06T02:12:51.341Z,100744.52
2018-10-06T02:13:56.811Z,100742.44
2018-10-06T02:15:02.308Z,100742.41
2018-10-06T02:16:07.904Z,100743.34
2018-10-06T02:17:13.332Z,100746.31
2018-10-06T02:18:18.795Z,100745.03
2018-10-06T02:19:24.465Z,100746.41
2018-10-06T02:20:29.900Z,100749.09
2018-10-06T02:21:35.403Z,100754.39
2018-10-06T02:22:40.854Z,100752.31
2018-10-06T02:23:46.254Z,100749.63
2018-10-06T02:24:51.689Z,100752.63
2018-10-06T02:25:57.173Z,100747.03
2018-10-06T02:27:02.653Z,100745.34
2018-10-06T02:28:08.680Z,100745.75
2018-10-06T02:29:14.120Z,100741.14
2018-10-06T02:30:19.786Z,100738.55
2018-10-06T02:31:25.403Z,100736.95
2018-10-06T02:32:30.918Z,100732.28
2018-10-06T02:33:36.350Z,100734.42
2018-10-06T02:34:41.758Z,100731.83
2018-10-06T02:35:47.216Z,100734.73
2018-10-06T02:36:52.822Z,100725.36
2018-10-06T02:37:58.257Z,100725.39
2018-10-06T02:39:03.910Z,100727.56
2018-10-06T02:40:09.341Z,100721.16
2018-10-06T02:41:14.840Z,100723.70
2018-10-06T02:42:20.484Z,100721.16
2018-10-06T02:43:25.928Z,100722.45
2018-10-06T02:44:31.481Z,100721.11
2018-10-06T02:45:36.944Z,100724.47
2018-10-06T02:46:42.410Z,100721.08
2018-10-06T02:47:47.877Z,100728.31
2018-10-06T02:48:53.333Z,100722.80
2018-10-06T02:49:58.938Z,100719.31
2018-10-06T02:51:04.525Z,100718.52
2018-10-06T02:52:10.045Z,100721.91
2018-10-06T02:53:15.545Z,100727.41
2018-10-06T02:54:21.073Z,100727.83
2018-10-06T02:55:26.648Z,100732.12
2018-10-06T02:56:32.052Z,100729.05
2018-10-06T02:57:37.665Z,100727.64
2018-10-06T02:58:43.072Z,100726.36
2018-10-06T02:59:48.668Z,100729.41
2018-10-06T03:00:54.185Z,100732.06
2018-10-06T03:01:59.819Z,100727.95
2018-10-06T03:03:05.281Z,100727.19
2018-10-06T03:04:10.868Z,100725.16
2018-10-06T03:05:16.336Z,100722.22
2018-10-06T03:06:21.766Z,100720.61
2018-10-06T03:07:27.256Z,100722.78
2018-10-06T03:08:32.713Z,100719.39
2018-10-06T03:09:38.204Z,100719.45
2018-10-06T03:10:43.633Z,100719.51
2018-10-06T03:11:49.171Z,100723.38
2018-10-06T03:12:54.605Z,100721.33
2018-10-06T03:14:00.078Z,100722.16
2018-10-06T03:15:05.989Z,100720.52
2018-10-06T03:16:11.397Z,100715.44
2018-10-06T03:17:16.919Z,100709.45
2018-10-06T03:18:22.354Z,100707.40
2018-10-06T03:19:27.874Z,100710.34
2018-10-06T03:20:33.273Z,100707.38
2018-10-06T03:21:38.727Z,100707.45
2018-10-06T03:22:44.132Z,100711.66
2018-10-06T03:23:49.799Z,100704.48
2018-10-06T03:24:55.284Z,100705.37
2018-10-06T03:26:00.696Z,100702.88
2018-10-06T03:27:06.084Z,100694.75
2018-10-06T03:28:11.530Z,100699.45
2018-10-06T03:29:16.966Z,100692.66
2018-10-06T03:30:22.543Z,100694.83
2018-10-06T03:31:28.025Z,100688.91
2018-10-06T03:32:33.453Z,100690.55
2018-10-06T03:33:38.873Z,100691.80
2018-10-06T03:34:44.291Z,100692.33
2018-10-06T03:35:49.855Z,100691.97
2018-10-06T03:36:55.335Z,100697.56
2018-10-06T03:38:00.784Z,100705.66
2018-10-06T03:39:07.968Z,100699.73
2018-10-06T03:40:13.475Z,100701.77
2018-10-06T03:41:18.889Z,100699.14
2018-10-06T03:42:24.358Z,100702.03
2018-10-06T03:43:29.817Z,100702.01
2018-10-06T03:44:35.315Z,100700.31
2018-10-06T03:45:40.793Z,100697.75
2018-10-06T03:46:46.265Z,100698.14
2018-10-06T03:47:51.831Z,100692.96
2018-10-06T03:48:57.266Z,100696.39
2018-10-06T03:50:02.804Z,100695.08
2018-10-06T03:51:08.424Z,100693.38
2018-10-06T03:52:13.944Z,100689.55
2018-10-06T03:53:19.582Z,100696.77
2018-10-06T03:54:25.090Z,100692.07
2018-10-06T03:55:30.649Z,100692.45
2018-10-06T03:56:36.092Z,100693.73
2018-10-06T03:57:41.516Z,100691.15
2018-10-06T03:58:46.985Z,100690.67
2018-10-06T03:59:52.558Z,100689.72
2018-10-06T04:00:58.011Z,100690.50
2018-10-06T04:02:03.549Z,100688.77
2018-10-06T04:03:09.106Z,100689.59
2018-10-06T04:04:14.693Z,100685.31
2018-10-06T04:05:20.221Z,100683.11
2018-10-06T04:06:25.685Z,100690.84
2018-10-06T04:07:31.393Z,100684.77
2018-10-06T04:08:36.876Z,100688.16
2018-10-06T04:09:43.255Z,100685.95
2018-10-06T04:10:48.746Z,100685.86
2018-10-06T04:11:54.253Z,100690.56
2018-10-06T04:12:59.733Z,100683.27
2018-10-06T04:14:05.580Z,100680.69
2018-10-06T04:15:11.022Z,100678.95
2018-10-06T04:16:16.445Z,100678.06
2018-10-06T04:17:22.140Z,100678.02
2018-10-06T04:18:27.612Z,100675.84
2018-10-06T04:19:33.113Z,100676.72
2018-10-06T04:20:38.589Z,100673.25
2018-10-06T04:21:46.996Z,100667.14
2018-10-06T04:22:52.832Z,100673.86
2018-10-06T04:23:58.300Z,100667.87
2018-10-06T04:25:03.735Z,100663.20
2018-10-06T04:26:09.280Z,100654.20
2018-10-06T04:27:14.759Z,100658.88
2018-10-06T04:28:20.188Z,100658.11
2018-10-06T04:29:25.589Z,100656.00
2018-10-06T04:30:31.136Z,100653.47
2018-10-06T04:31:36.734Z,100644.55
2018-10-06T04:32:42.245Z,100645.38
2018-10-06T04:33:47.744Z,100646.20
2018-10-06T04:34:53.274Z,100646.27
2018-10-06T04:35:58.734Z,100645.82
2018-10-06T04:37:04.241Z,100647.20
2018-10-06T04:38:09.653Z,100654.47
2018-10-06T04:39:15.263Z,100644.64
2018-10-06T04:40:20.800Z,100641.66
2018-10-06T04:41:26.387Z,100641.25
2018-10-06T04:42:31.885Z,100639.11
2018-10-06T04:43:37.367Z,100642.53
2018-10-06T04:44:42.807Z,100635.74
2018-10-06T04:45:48.407Z,100630.69
2018-10-06T04:46:54.036Z,100633.63
2018-10-06T04:47:59.579Z,100627.68
2018-10-06T04:49:05.146Z,100636.16
2018-10-06T04:50:10.582Z,100635.33
2018-10-06T04:51:16.137Z,100635.36
2018-10-06T04:52:21.878Z,100633.70
2018-10-06T04:53:27.312Z,100634.02
2018-10-06T04:54:32.732Z,100638.69
2018-10-06T04:55:38.218Z,100631.39
2018-10-06T04:56:43.678Z,100635.68
2018-10-06T04:57:49.146Z,100633.53
2018-10-06T04:58:54.782Z,100630.45
2018-10-06T05:00:00.242Z,100636.03
2018-10-06T05:01:05.689Z,100630.45
2018-10-06T05:02:11.161Z,100630.97
2018-10-06T05:03:16.662Z,100627.55
2018-10-06T05:04:22.242Z,100633.37
2018-10-06T05:05:27.672Z,100632.05
2018-10-06T05:06:33.130Z,100630.77
2018-10-06T05:07:38.612Z,100627.38
2018-10-06T05:08:44.150Z,100622.20
2018-10-06T05:09:49.905Z,100628.11
2018-10-06T05:10:55.568Z,100632.85
2018-10-06T05:12:01.030Z,100629.45
2018-10-06T05:13:06.641Z,100623.13
2018-10-06T05:14:12.094Z,100625.34
2018-10-06T05:15:17.517Z,100621.88
2018-10-06T05:16:23.085Z,100621.43
2018-10-06T05:17:28.610Z,100625.69
2018-10-06T05:18:34.077Z,100618.80
2018-10-06T05:19:39.508Z,100621.81
2018-10-06T05:20:45.009Z,100616.69
2018-10-06T05:21:51.143Z,100621.43
2018-10-06T05:22:56.600Z,100621.47
2018-10-06T05:24:02.140Z,100620.28
2018-10-06T05:25:07.681Z,100620.38
2018-10-06T05:26:13.182Z,100617.89
2018-10-06T05:27:18.676Z,100618.72
2018-10-06T05:28:24.109Z,100620.03
2018-10-06T05:29:29.505Z,100625.16
2018-10-06T05:30:35.145Z,100620.89
2018-10-06T05:31:40.607Z,100621.31
2018-10-06T05:32:46.101Z,100617.50
2018-10-06T05:33:51.887Z,100614.53
2018-10-06T05:34:57.317Z,100616.64
2018-10-06T05:36:02.989Z,100615.39
2018-10-06T05:37:08.493Z,100613.77
2018-10-06T05:38:14.024Z,100609.16
2018-10-06T05:39:19.449Z,100609.64
2018-10-06T05:40:25.014Z,100610.92
2018-10-06T05:41:30.537Z,100615.63
2018-10-06T05:42:35.961Z,100607.59
2018-10-06T05:43:41.703Z,100611.33
2018-10-06T05:44:47.153Z,100609.22
2018-10-06T05:45:52.681Z,100608.39
2018-10-06T05:46:58.121Z,100605.86
2018-10-06T05:48:03.685Z,100602.06
2018-10-06T05:49:09.158Z,100605.06
2018-10-06T05:50:14.708Z,100602.13
2018-10-06T05:51:20.206Z,100601.36
2018-10-06T05:52:25.794Z,100600.94
2018-10-06T05:53:31.256Z,100599.66
2018-10-06T05:54:36.694Z,100597.94
2018-10-06T05:55:42.177Z,100600.05
2018-10-06T05:56:47.633Z,100599.18
2018-10-06T05:57:53.089Z,100603.88
2018-10-06T05:58:58.659Z,100600.46
2018-10-06T06:00:04.171Z,100603.02
2018-10-06T06:01:09.656Z,100600.02
2018-10-06T06:02:15.109Z,100605.09
2018-10-06T06:03:20.651Z,100606.77
2018-10-06T06:04:26.214Z,100602.89
2018-10-06T06:05:31.662Z,100607.98
2018-10-06T06:06:37.148Z,100600.78
2018-10-06T06:07:43.868Z,100606.77
2018-10-06T06:08:49.362Z,100606.83
2018-10-06T06:09:55.032Z,100608.66
2018-10-06T06:11:00.749Z,100610.80
2018-10-06T06:12:06.244Z,100609.10
2018-10-06T06:13:11.692Z,100606.92
2018-10-06T06:14:17.332Z,100604.81
2018-10-06T06:15:22.939Z,100606.13
2018-10-06T06:16:28.344Z,100604.49
2018-10-06T06:17:33.877Z,100604.88
2018-10-06T06:18:39.312Z,100603.66
2018-10-06T06:19:44.772Z,100604.88
2018-10-06T06:20:50.217Z,100607.85
2018-10-06T06:21:55.901Z,100604.33
2018-10-06T06:23:01.433Z,100601.33
2018-10-06T06:24:07.238Z,100602.19
2018-10-06T06:25:12.729Z,100602.13
2018-10-06T06:26:18.247Z,100603.34
2018-10-06T06:27:23.800Z,100602.92
2018-10-06T06:28:29.223Z,100602.13
2018-10-06T06:29:34.645Z,100602.98
2018-10-06T06:30:40.187Z,100600.33
2018-10-06T06:31:45.668Z,100603.75
2018-10-06T06:32:51.280Z,100595.49
2018-10-06T06:33:56.950Z,100596.73
2018-10-06T06:35:02.459Z,100596.73
2018-10-06T06:36:08.109Z,100602.21
2018-10-06T06:37:13.558Z,100594.46
2018-10-06T06:38:19.114Z,100593.95
2018-10-06T06:39:24.481Z,100595.12
2018-10-06T06:40:30.014Z,100594.13
2018-10-06T06:41:35.807Z,100588.90
2018-10-06T06:42:41.357Z,100594.81
2018-10-06T06:43:46.916Z,100595.09
2018-10-06T06:44:52.407Z,100587.38
2018-10-06T06:45:57.884Z,100583.02
2018-10-06T06:47:03.344Z,100585.40
2018-10-06T06:48:08.789Z,100583.14
2018-10-06T06:49:14.274Z,100588.54
2018-10-06T06:50:19.754Z,100585.87
2018-10-06T06:51:25.308Z,100588.70
2018-10-06T06:52:30.788Z,100589.01
2018-10-06T06:53:36.557Z,100583.28
2018-10-06T06:54:42.161Z,100588.71
2018-10-06T06:55:47.572Z,100589.87
2018-10-06T06:56:53.242Z,100585.89
2018-10-06T06:57:58.861Z,100584.94
2018-10-06T06:59:04.309Z,100584.38
2018-10-06T07:00:09.764Z,100580.87
2018-10-06T07:01:15.176Z,100584.10
2018-10-06T07:02:20.669Z,100581.62
2018-10-06T07:03:26.152Z,100580.83
2018-10-06T07:04:31.821Z,100579.88
2018-10-06T07:05:37.270Z,100576.30
2018-10-06T07:06:42.728Z,100580.89
2018-10-06T07:07:48.242Z,100583.26
2018-10-06T07:08:53.707Z,100584.01
2018-10-06T07:09:59.209Z,100586.37
2018-10-06T07:11:04.804Z,100580.66
2018-10-06T07:12:10.322Z,100581.87
2018-10-06T07:13:15.858Z,100583.56
2018-10-06T07:14:21.315Z,100588.91
2018-10-06T07:15:26.796Z,100579.39
2018-10-06T07:16:32.268Z,100575.87
2018-10-06T07:17:37.739Z,100582.70
2018-10-06T07:18:43.268Z,100582.45
2018-10-06T07:19:48.730Z,100583.94
2018-10-06T07:20:54.319Z,100579.95
2018-10-06T07:21:59.850Z,100584.97
2018-10-06T07:23:05.314Z,100578.71
2018-10-06T07:24:10.817Z,100573.44
2018-10-06T07:25:16.319Z,100574.42
2018-10-06T07:26:22.017Z,100577.19
2018-10-06T07:27:27.537Z,100573.56
2018-10-06T07:28:33.107Z,100578.98
2018-10-06T07:29:38.821Z,100577.84
2018-10-06T07:30:44.269Z,100574.23
2018-10-06T07:31:49.816Z,100577.89
2018-10-06T07:32:55.325Z,100575.15
2018-10-06T07:34:00.842Z,100579.09
2018-10-06T07:35:06.649Z,100580.23
2018-10-06T07:36:12.117Z,100579.78
2018-10-06T07:37:17.666Z,100581.20
2018-10-06T07:38:23.260Z,100577.67
2018-10-06T07:39:28.873Z,100580.38
2018-10-06T07:40:34.341Z,100578.37
2018-10-06T07:41:41.609Z,100576.48
2018-10-06T07:42:47.361Z,100574.91
2018-10-06T07:43:52.968Z,100577.80
2018-10-06T07:44:58.499Z,100580.59
2018-10-06T07:46:04.007Z,100579.10
2018-10-06T07:47:09.560Z,100578.92
2018-10-06T07:48:15.014Z,100570.69
2018-10-06T07:49:20.562Z,100580.42
2018-10-06T07:50:26.163Z,100581.82
2018-10-06T07:51:31.653Z,100580.64
2018-10-06T07:52:37.322Z,100579.32
2018-10-06T07:53:42.847Z,100574.89
2018-10-06T07:54:48.317Z,100580.19
2018-10-06T07:55:53.910Z,100574.73
2018-10-06T07:56:59.453Z,100578.86
2018-10-06T07:58:04.908Z,100577.86
2018-10-06T07:59:10.527Z,100578.58
2018-10-06T08:00:15.969Z,100578.18
2018-10-06T08:01:21.643Z,100574.87
2018-10-06T08:02:27.105Z,100569.36
2018-10-06T08:03:32.615Z,100573.27
2018-10-06T08:04:38.247Z,100576.73
2018-10-06T08:05:43.866Z,100576.45
2018-10-06T08:06:49.499Z,100568.73
2018-10-06T08:07:55.140Z,100563.80
2018-10-06T08:09:00.602Z,100568.98
2018-10-06T08:10:06.132Z,100572.00
2018-10-06T08:11:11.548Z,100569.75
2018-10-06T08:12:17.066Z,100564.66
2018-10-06T08:13:25.438Z,100569.06
2018-10-06T08:14:30.919Z,100571.18
2018-10-06T08:15:36.380Z,100570.47
2018-10-06T08:16:41.943Z,100564.73
2018-10-06T08:17:47.411Z,100567.13
2018-10-06T08:18:52.932Z,100565.05
2018-10-06T08:19:58.453Z,100567.62
2018-10-06T08:21:04.047Z,100573.61
2018-10-06T08:22:09.850Z,100566.11
2018-10-06T08:23:15.421Z,100563.47
2018-10-06T08:24:20.858Z,100569.16
2018-10-06T08:25:26.474Z,100565.41
2018-10-06T08:26:31.909Z,100570.31
2018-10-06T08:27:37.412Z,100565.53
2018-10-06T08:28:42.911Z,100569.20
2018-10-06T08:29:48.345Z,100565.05
2018-10-06T08:30:53.940Z,100569.52
2018-10-06T08:31:59.344Z,100564.22
2018-10-06T08:33:05.033Z,100562.50
2018-10-06T08:34:10.840Z,100559.48
2018-10-06T08:35:16.300Z,100561.24
2018-10-06T08:36:22.011Z,100562.40
2018-10-06T08:37:27.436Z,100569.64
2018-10-06T08:38:32.962Z,100563.81
2018-10-06T08:39:38.445Z,100564.80
2018-10-06T08:40:43.880Z,100565.81
2018-10-06T08:41:49.388Z,100564.89
2018-10-06T08:42:55.003Z,100562.54
2018-10-06T08:44:00.361Z,100567.64
2018-10-06T08:45:06.271Z,100558.94
2018-10-06T08:46:11.749Z,100557.58
2018-10-06T08:47:17.238Z,100553.50
2018-10-06T08:48:22.832Z,100556.53
2018-10-06T08:49:28.314Z,100557.31
2018-10-06T08:50:33.845Z,100554.66
2018-10-06T08:51:39.365Z,100551.95
2018-10-06T08:52:45.077Z,100545.20
2018-10-06T08:53:50.586Z,100544.95
2018-10-06T08:54:56.112Z,100548.89
2018-10-06T08:56:01.581Z,100544.55
2018-10-06T08:57:07.073Z,100546.58
2018-10-06T08:58:12.530Z,100543.91
2018-10-06T08:59:17.973Z,100547.98
2018-10-06T09:00:23.414Z,100547.64
2018-10-06T09:01:28.880Z,100550.78
2018-10-06T09:02:34.374Z,100546.13
2018-10-06T09:03:39.860Z,100543.59
2018-10-06T09:04:45.305Z,100546.25
2018-10-06T09:05:51.049Z,100542.94
2018-10-06T09:06:56.517Z,100540.53
2018-10-06T09:08:02.023Z,100538.82
2018-10-06T09:09:09.413Z,100529.02
2018-10-06T09:10:14.823Z,100534.16
2018-10-06T09:11:20.303Z,100536.32
2018-10-06T09:12:25.801Z,100538.00
2018-10-06T09:13:31.625Z,100532.52
2018-10-06T09:14:38.552Z,100532.64
2018-10-06T09:15:45.135Z,100525.73
2018-10-06T09:16:50.785Z,100526.39
2018-10-06T09:17:56.341Z,100527.73
2018-10-06T09:19:01.875Z,100525.05
2018-10-06T09:20:07.388Z,100524.63
2018-10-06T09:21:12.860Z,100518.77
2018-10-06T09:22:18.401Z,100519.76
2018-10-06T09:23:23.942Z,100523.12
2018-10-06T09:24:29.412Z,100515.31
2018-10-06T09:25:35.046Z,100514.95
2018-10-06T09:26:40.533Z,100512.64
2018-10-06T09:27:46.017Z,100516.94
2018-10-06T09:28:51.560Z,100510.38
2018-10-06T09:29:57.030Z,100508.72
2018-10-06T09:31:02.577Z,100504.86
2018-10-06T09:32:08.517Z,100502.06
2018-10-06T09:33:13.996Z,100500.66
2018-10-06T09:34:19.474Z,100498.48
2018-10-06T09:35:24.977Z,100501.39
2018-10-06T09:36:30.458Z,100501.23
2018-10-06T09:37:36.171Z,100494.21
2018-10-06T09:38:41.704Z,100498.37
2018-10-06T09:39:47.749Z,100498.77
2018-10-06T09:40:53.724Z,100492.67
2018-10-06T09:41:59.397Z,100508.34
2018-10-06T09:43:04.793Z,100497.09
2018-10-06T09:44:10.727Z,100500.17
2018-10-06T09:45:16.224Z,100503.15
2018-10-06T09:46:21.769Z,100506.75
2018-10-06T09:47:27.290Z,100504.80
2018-10-06T09:48:32.701Z,100502.50
2018-10-06T09:49:38.785Z,100505.18
2018-10-06T09:50:44.327Z,100508.89
2018-10-06T09:51:49.820Z,100510.92
2018-10-06T09:52:55.493Z,100504.80
2018-10-06T09:54:00.969Z,100504.13
2018-10-06T09:55:06.523Z,100501.04
2018-10-06T09:56:12.072Z,100490.88
2018-10-06T09:57:17.553Z,100498.85
2018-10-06T09:58:23.101Z,100490.74
2018-10-06T09:59:28.633Z,100495.25
2018-10-06T10:00:39.061Z,100488.81
2018-10-06T10:01:49.751Z,100490.02
2018-10-06T10:04:03.374Z,100490.37
2018-10-06T10:05:14.231Z,100487.50
2018-10-06T10:06:19.781Z,100486.45
2018-10-06T10:07:25.299Z,100491.02
2018-10-06T10:08:30.818Z,100492.13
2018-10-06T10:09:39.203Z,100486.07
2018-10-06T10:10:44.986Z,100484.00
2018-10-06T10:11:50.402Z,100491.28
2018-10-06T10:12:55.843Z,100485.84
2018-10-06T10:14:01.422Z,100484.29
2018-10-06T10:15:06.940Z,100482.08
2018-10-06T10:16:12.449Z,100476.92
2018-10-06T10:17:18.080Z,100479.02
2018-10-06T10:18:23.617Z,100479.68
2018-10-06T10:19:29.037Z,100481.74
2018-10-06T10:20:34.612Z,100473.97
2018-10-06T10:21:40.137Z,100476.99
2018-10-06T10:22:45.801Z,100477.03
2018-10-06T10:23:51.388Z,100471.82
2018-10-06T10:24:56.833Z,100471.84
2018-10-06T10:26:02.349Z,100474.52
2018-10-06T10:27:07.786Z,100468.73
2018-10-06T10:28:13.281Z,100467.98
2018-10-06T10:29:18.708Z,100461.41
2018-10-06T10:30:24.213Z,100468.53
2018-10-06T10:31:29.711Z,100464.25
2018-10-06T10:32:35.192Z,100462.60
2018-10-06T10:33:40.695Z,100454.72
2018-10-06T10:34:46.117Z,100459.28
2018-10-06T10:35:51.762Z,100458.45
2018-10-06T10:36:57.351Z,100458.38
2018-10-06T10:38:02.861Z,100459.12
2018-10-06T10:39:09.039Z,100457.37
2018-10-06T10:40:14.527Z,100454.00
2018-10-06T10:41:20.003Z,100455.30
2018-10-06T10:42:25.467Z,100454.19
2018-10-06T10:43:31.028Z,100445.77
2018-10-06T10:44:36.501Z,100449.15
2018-10-06T10:45:41.917Z,100446.06
2018-10-06T10:46:47.473Z,100450.13
2018-10-06T10:47:53.043Z,100450.52
2018-10-06T10:48:58.502Z,100439.75
2018-10-06T10:50:04.052Z,100448.73
2018-10-06T10:51:09.523Z,100443.95
2018-10-06T10:52:14.968Z,100441.95
2018-10-06T10:53:20.524Z,100436.92
2018-10-06T10:54:26.062Z,100434.31
2018-10-06T10:55:31.509Z,100431.40
2018-10-06T10:56:36.949Z,100432.58
2018-10-06T10:57:42.507Z,100433.34
2018-10-06T10:58:48.036Z,100429.56
2018-10-06T10:59:53.672Z,100424.47
2018-10-06T11:00:59.301Z,100426.16
2018-10-06T11:02:04.847Z,100427.84
2018-10-06T11:03:10.423Z,100431.88
2018-10-06T11:04:16.151Z,100423.34
2018-10-06T11:05:21.983Z,100421.52
2018-10-06T11:06:27.501Z,100418.69
2018-10-06T11:07:33.091Z,100420.00
2018-10-06T11:08:38.602Z,100415.83
2018-10-06T11:09:44.150Z,100412.98
2018-10-06T11:10:49.697Z,100415.34
2018-10-06T11:11:55.288Z,100416.19
2018-10-06T11:13:00.806Z,100412.39
2018-10-06T11:14:06.285Z,100408.35
2018-10-06T11:15:11.759Z,100412.50
2018-10-06T11:16:17.279Z,100410.17
2018-10-06T11:17:22.916Z,100407.57
2018-10-06T11:18:28.299Z,100410.11
2018-10-06T11:19:33.819Z,100414.84
2018-10-06T11:20:39.458Z,100411.41
2018-10-06T11:21:44.939Z,100402.27
2018-10-06T11:22:50.493Z,100410.81
2018-10-06T11:23:56.090Z,100411.67
2018-10-06T11:25:01.618Z,100404.28
2018-10-06T11:26:07.069Z,100402.87
2018-10-06T11:27:12.643Z,100397.42
2018-10-06T11:28:18.121Z,100402.27
2018-10-06T11:29:23.628Z,100403.23
2018-10-06T11:30:29.123Z,100398.11
2018-10-06T11:31:34.609Z,100396.45
2018-10-06T11:32:40.160Z,100396.33
2018-10-06T11:33:45.629Z,100400.01
2018-10-06T11:34:51.129Z,100396.44
2018-10-06T11:35:56.682Z,100395.84
2018-10-06T11:37:02.222Z,100394.29
2018-10-06T11:38:07.852Z,100392.14
2018-10-06T11:39:13.278Z,100391.08
2018-10-06T11:40:18.782Z,100392.88
2018-10-06T11:41:24.309Z,100392.14
2018-10-06T11:42:29.732Z,100390.16
2018-10-06T11:43:35.528Z,100390.73
2018-10-06T11:44:41.008Z,100386.43
2018-10-06T11:45:46.461Z,100385.96
2018-10-06T11:46:52.154Z,100385.86
2018-10-06T11:47:57.725Z,100387.55
2018-10-06T11:49:03.160Z,100382.89
2018-10-06T11:50:08.708Z,100381.94
2018-10-06T11:51:14.173Z,100378.84
2018-10-06T11:52:19.648Z,100378.38
2018-10-06T11:53:25.331Z,100379.22
2018-10-06T11:54:30.717Z,100376.70
2018-10-06T11:55:36.188Z,100365.41
2018-10-06T11:56:41.621Z,100373.47
2018-10-06T11:57:47.124Z,100368.32
2018-10-06T11:58:52.787Z,100368.55
2018-10-06T11:59:58.321Z,100372.44
2018-10-06T12:01:04.037Z,100362.29
2018-10-06T12:02:09.498Z,100358.94
2018-10-06T12:03:15.078Z,100360.98
2018-10-06T12:04:20.558Z,100358.84
2018-10-06T12:05:26.177Z,100357.74
2018-10-06T12:06:31.717Z,100361.03
2018-10-06T12:07:38.040Z,100358.54
2018-10-06T12:08:44.444Z,100355.56
2018-10-06T12:09:50.170Z,100353.65
2018-10-06T12:10:55.880Z,100356.36
2018-10-06T12:12:01.336Z,100353.02
2018-10-06T12:13:06.867Z,100359.89
2018-10-06T12:14:12.267Z,100352.80
2018-10-06T12:15:17.692Z,100354.08
2018-10-06T12:16:23.519Z,100354.05
2018-10-06T12:17:28.953Z,100351.67
2018-10-06T12:18:34.421Z,100347.78
2018-10-06T12:19:40.009Z,100347.62
2018-10-06T12:20:45.503Z,100343.67
2018-10-06T12:21:50.991Z,100346.05
2018-10-06T12:22:56.669Z,100339.75
2018-10-06T12:24:02.260Z,100338.44
2018-10-06T12:25:07.758Z,100344.08
2018-10-06T12:26:13.307Z,100332.52
2018-10-06T12:27:18.804Z,100330.47
2018-10-06T12:28:24.427Z,100334.52
2018-10-06T12:29:29.914Z,100337.55